This is the latest recevied weather packets stored in our database for station/object KC3WWU. If no packets are shown the sender has not sent any weather packets the latest 1 day(s).
| Time | Temp. | Humidity | Pressure | Rain* | Wind** | Luminosity | Snow |
|---|---|---|---|---|---|---|---|
| 1777988796 | 18.33° C | 63% | 1007.4 hPa | 0 mm | 1.79 m/s, 5° | 243 W/m² | - |
| 1777988494 | 18.33° C | 65% | 1007.7 hPa | 0 mm | 3.58 m/s, 299° | 133 W/m² | - |
| 1777988191 | 18.89° C | 65% | 1007.5 hPa | 0 mm | 1.79 m/s, 328° | 164 W/m² | - |
| 1777987887 | 18.89° C | 63% | 1007.4 hPa | 0 mm | 1.79 m/s, 290° | 339 W/m² | - |
| 1777987583 | 18.89° C | 65% | 1007.6 hPa | 0 mm | 2.68 m/s, 310° | 203 W/m² | - |
| 1777987281 | 18.89° C | 63% | 1007.5 hPa | 0 mm | 1.79 m/s, 254° | 216 W/m² | - |
| 1777986977 | 18.89° C | 63% | 1007.5 hPa | 0 mm | 2.24 m/s, 25° | 285 W/m² | - |
| 1777986675 | 18.33° C | 64% | 1007.4 hPa | 0 mm | 1.79 m/s, 258° | 295 W/m² | - |
| 1777986373 | 18.89° C | 63% | 1007.5 hPa | 0 mm | 4.02 m/s, 44° | 236 W/m² | - |
| 1777986071 | 18.33° C | 64% | 1007.5 hPa | 0 mm | 2.68 m/s, 333° | 255 W/m² | - |
| 1777985768 | 18.33° C | 65% | 1007.5 hPa | 0 mm | 2.24 m/s, 324° | 266 W/m² | - |
| 1777985465 | 17.78° C | 66% | 1007.6 hPa | 0 mm | 2.24 m/s, 304° | 203 W/m² | - |
| 1777985161 | 17.78° C | 66% | 1007.6 hPa | 0 mm | 2.24 m/s, 326° | 142 W/m² | - |
| 1777984857 | 17.78° C | 66% | 1007.7 hPa | 0 mm | 0.89 m/s, 289° | 80 W/m² | - |
| 1777984553 | 17.78° C | 68% | 1007.4 hPa | 0 mm | 0.89 m/s, 88° | 103 W/m² | - |
| 1777984250 | 17.78° C | 67% | 1007.8 hPa | 0 mm | 1.79 m/s, 237° | 124 W/m² | - |
| 1777983947 | 17.22° C | 69% | 1007.5 hPa | 0 mm | 1.34 m/s, 178° | 106 W/m² | - |
| 1777983644 | 17.22° C | 70% | 1007.8 hPa | 0 mm | 0.89 m/s, 337° | 69 W/m² | - |
| 1777983340 | 16.11° C | 72% | 1007.7 hPa | 0 mm | 1.34 m/s, 2° | 74 W/m² | - |
| 1777983037 | 16.11° C | 73% | 1007.8 hPa | 0 mm | 1.79 m/s, 352° | 72 W/m² | - |
| 1777982734 | 15.56° C | 75% | 1007.9 hPa | 0 mm | 2.24 m/s, 327° | 50 W/m² | - |
| 1777982429 | 15.56° C | 76% | 1007.8 hPa | 0 mm | 1.79 m/s, 356° | 52 W/m² | - |
| 1777982124 | 15° C | 78% | 1007.7 hPa | 0 mm | 1.79 m/s, 24° | 45 W/m² | - |
| 1777981822 | 15° C | 79% | 1008 hPa | 0 mm | 2.24 m/s, 332° | 44 W/m² | - |
| 1777981519 | 15° C | 79% | 1007.9 hPa | 0 mm | 2.68 m/s, 5° | 48 W/m² | - |
* Rain latest hour (hover to see other rain measurements)
** Current wind speed in m/s (hover to see current wind gust speed)